Vernal, UT (84078)

12:49 AM MDT on August 21, 2014 (GMT -0600)
Maeser | Change Station
CLOSE
Current Station
Personal Weather Station
Location: Vernal, UT
Elevation: 5469 ft
Nearby Weather Stations

Elev 5469 ft 40.46 °N, 109.57 °W | Updated 8 minutes ago

Partly Cloudy
Partly Cloudy
62.2 °F
Feels Like 62.2 °F
N
4.0
Wind Variable Wind from WNW
Gusts 16.0 mph

Today
High -- | Low -- °F
--% Chance of Precip.
Yesterday
High -- | Low -- °F
Precip. -- in
6:35 AM 8:07 PM
Waning Crescent, 16% visible
Pressure 29.95 in
Visibility 10.0 miles
Clouds Few 8000 ft
Dew Point 48 °F
Humidity 60%
Rainfall 0.00 in
Snow Depth Not available.
UV 0 out of 12
Pollen 6.10 out of 12
Air Quality Not available.
Flu Activity Not available.
METAR KVEL 210553Z AUTO 24003KT 10SM FEW080 15/12 A3010 RMK AO2 RAE19 SLP140 P0000 60002 T01500117 10211 20150 51014

More Conditions Fewer Conditions

Pressure 29.95 in
Visibility 10.0 miles
Clouds Few 8000 ft
Dew Point 48 °F
Humidity 60%
Rainfall 0.00 in
Snow Depth Not available.
UV 0 out of 12
Pollen 6.10 out of 12
Air Quality Not available.
Flu Activity Not available.
METAR KVEL 210553Z AUTO 24003KT 10SM FEW080 15/12 A3010 RMK AO2 RAE19 SLP140 P0000 60002 T01500117 10211 20150 51014

More Conditions Fewer Conditions

10-Day Weather Forecast

Almanac

Astronomy

Aug. 21, 2014 Rise Set
Actual Time 6:35 AM MDT 8:07 PM MDT
Civil Twilight 6:06 AM MDT 8:35 PM MDT
Nautical Twilight 5:31 AM MDT 9:10 PM MDT
Astronomical Twilight 4:54 AM MDT 9:46 PM MDT
Moon 3:07 AM MDT 5:38 PM MDT
Length of Visible Light 14h 29m
Length of Day
13h 31m
Tomorrow will be 2m 27s shorter.
Waning Crescent, 16% of the Moon is Illuminated
Today
Waning Crescent
Aug 25
New
Sep 2
First Quarter
Sep 8
Full
Sep 15
Last Quarter

Today's Extremes

State Highs State Lows

Community

WunderPhotos

Upload Photos

1,745,858 photos uploaded!

Nearby

Snow Depth

Station Depth Elevation
King's Cabin 0 in 8730 ft
Mosby Mountain 1 in 9500 ft
Chepeta 0 in 10300 ft
Five Points Lake 0 in 10920 ft
Rock Creek 1 in 7900 ft

Earthquake Activity

City Distance Mag. Time & Date
No recent earthquake activity has been reported nearby.
Minimum magnitude displayed is 2.5.

Coastal Water Temperatures

Place Temperature
No Stations Reporting

Nearby Weather Stations